Autoridad de Aeronautica Civil de Panamá


taf




 

AERÓDROMOS

 

PRONOSTICO DE AERÓDROMO
TAF

AEROPUERTO INTL. DE TOCUMEN:


TAF MPTO 231100Z 2312/2418 25006KT 9999 SCT018 SCT100 TEMPO 2319/2321 19008KT 6000 TSRA SCT016CB BKN090 BECMG 2321/2324 NSW SCT018 SCT090
AEROPUERTO MARCOS A. GELABERT:


TAF MPMG 231100Z 2312/2324 32006KT 9999 SCT018 SCT100 TEMPO 2319/2321 18010KT 6000 TSRA SCT016CB BKN090
AEROPUERTO ENRIQUE MALEK:


TAF MPDA 231100Z 2312/2324 22006KT 9999 SCT018 SCT090 TEMPO 2317/2320 6000 TSRA SCT015CB BKN080
AEROPUERTO PANAMA PACIFICO:


TAF MPPA 231100Z 2312/2418 35006KT 9999 SCT018 SCT100 TEMPO 2319/2321 19008KT 6000 TSRA SCT016CB BKN090 BECMG 2321/2324 NSW SCT018 SCT090
AEROPUERTO SCARLETT MARTÍNEZ:


TAF MPSM 231100Z 2312/2418 34006KT 9999 SCT018 SCT090 TEMPO 2318/2320 22008KT 6000 TSRA SCT017CB BKN090 BECMG 2320/2324 NSW SCT018 SCT090


Contador: 45